createdAt,value
2018-05-23T00:02:18.076Z,99.90
2018-05-23T00:04:45.577Z,99.90
2018-05-23T00:07:13.101Z,99.90
2018-05-23T00:09:40.597Z,99.90
2018-05-23T00:12:08.112Z,99.90
2018-05-23T00:14:35.604Z,99.90
2018-05-23T00:17:03.096Z,99.90
2018-05-23T00:19:31.372Z,99.90
2018-05-23T00:21:59.633Z,99.90
2018-05-23T00:24:27.911Z,99.90
2018-05-23T00:26:56.173Z,99.90
2018-05-23T00:29:23.689Z,99.90
2018-05-23T00:31:51.180Z,99.90
2018-05-23T00:34:18.696Z,99.90
2018-05-23T00:36:46.192Z,99.90
2018-05-23T00:39:13.686Z,99.90
2018-05-23T00:41:41.968Z,99.90
2018-05-23T00:44:10.234Z,99.90
2018-05-23T00:46:38.512Z,99.90
2018-05-23T00:49:06.773Z,99.90
2018-05-23T00:51:34.289Z,99.90
2018-05-23T00:54:01.781Z,99.90
2018-05-23T00:56:30.064Z,99.90
2018-05-23T00:58:57.561Z,99.90
2018-05-23T01:01:25.077Z,99.90
2018-05-23T01:03:52.572Z,99.90
2018-05-23T01:06:20.069Z,99.90
2018-05-23T01:08:47.585Z,99.90
2018-05-23T01:11:15.076Z,99.90
2018-05-23T01:13:42.589Z,99.90
2018-05-23T01:16:10.848Z,99.90
2018-05-23T01:18:38.445Z,99.90
2018-05-23T01:21:05.991Z,99.90
2018-05-23T01:23:34.249Z,99.90
2018-05-23T01:26:01.764Z,99.90
2018-05-23T01:28:29.252Z,99.90
2018-05-23T01:30:58.268Z,99.90
2018-05-23T01:33:26.524Z,99.90
2018-05-23T01:35:54.805Z,99.90
2018-05-23T01:38:22.300Z,99.90
2018-05-23T01:40:49.792Z,99.90
2018-05-23T01:43:17.309Z,99.90
2018-05-23T01:45:45.564Z,99.90
2018-05-23T01:48:13.084Z,99.90
2018-05-23T01:50:40.580Z,99.90
2018-05-23T01:53:08.093Z,99.90
2018-05-23T01:55:35.588Z,99.90
2018-05-23T01:58:03.100Z,99.90
2018-05-23T02:00:30.590Z,99.90
2018-05-23T02:02:58.105Z,99.90
2018-05-23T02:05:25.596Z,99.90
2018-05-23T02:07:53.881Z,99.90
2018-05-23T02:10:21.385Z,99.90
2018-05-23T02:12:49.640Z,99.90
2018-05-23T02:15:17.152Z,99.90
2018-05-23T02:17:44.644Z,99.90
2018-05-23T02:20:12.156Z,99.90
2018-05-23T02:22:39.648Z,99.90
2018-05-23T02:25:07.136Z,99.90
2018-05-23T02:27:35.416Z,99.90
2018-05-23T02:30:03.672Z,99.90
2018-05-23T02:32:31.192Z,99.90
2018-05-23T02:34:58.684Z,99.90
2018-05-23T02:37:26.197Z,99.90
2018-05-23T02:39:53.692Z,99.90
2018-05-23T02:42:21.187Z,99.90
2018-05-23T02:44:49.461Z,99.90
2018-05-23T02:47:17.720Z,99.90
2018-05-23T02:49:45.236Z,99.90
2018-05-23T02:52:12.731Z,99.90
2018-05-23T02:54:40.248Z,99.90
2018-05-23T02:57:07.736Z,99.90
2018-05-23T02:59:35.223Z,99.90
2018-05-23T03:02:02.742Z,99.90
2018-05-23T03:04:30.232Z,99.90
2018-05-23T03:06:57.752Z,99.90
2018-05-23T03:09:25.239Z,99.90
2018-05-23T03:11:52.753Z,99.90
2018-05-23T03:14:20.244Z,99.90
2018-05-23T03:16:47.771Z,99.90
2018-05-23T03:19:15.264Z,99.90
2018-05-23T03:21:42.753Z,99.90
2018-05-23T03:24:11.036Z,99.90
2018-05-23T03:26:39.291Z,99.90
2018-05-23T03:29:06.807Z,99.90
2018-05-23T03:31:34.302Z,99.90
2018-05-23T03:34:01.820Z,99.90
2018-05-23T03:36:29.317Z,99.90
2018-05-23T03:38:56.831Z,99.90
2018-05-23T03:41:24.326Z,99.90
2018-05-23T03:43:51.816Z,99.90
2018-05-23T03:46:20.093Z,99.90
2018-05-23T03:48:48.352Z,99.90
2018-05-23T03:51:17.371Z,99.90
2018-05-23T03:53:45.628Z,99.90
2018-05-23T03:56:14.649Z,99.90
2018-05-23T03:58:42.141Z,99.90
2018-05-23T04:01:21.700Z,99.90
2018-05-23T04:04:01.061Z,99.90
2018-05-23T04:06:40.243Z,99.90
2018-05-23T04:09:07.736Z,99.90
2018-05-23T04:11:35.237Z,99.90
2018-05-23T04:14:02.756Z,99.90
2018-05-23T04:16:30.248Z,99.90
2018-05-23T04:18:57.763Z,99.90
2018-05-23T04:21:25.262Z,99.90
2018-05-23T04:23:52.784Z,99.90
2018-05-23T04:26:20.276Z,99.90
2018-05-23T04:28:48.565Z,99.90
2018-05-23T04:31:16.064Z,99.90
2018-05-23T04:33:43.584Z,99.90
2018-05-23T04:36:11.086Z,99.90
2018-05-23T04:38:38.584Z,99.90
2018-05-23T04:41:06.866Z,99.90
2018-05-23T04:43:35.123Z,99.90
2018-05-23T04:46:02.660Z,99.90
2018-05-23T04:48:30.154Z,99.90
2018-05-23T04:50:58.442Z,99.90
2018-05-23T04:53:25.940Z,99.90
2018-05-23T04:55:53.465Z,99.90
2018-05-23T04:58:20.960Z,99.90
2018-05-23T05:00:48.457Z,99.90
2018-05-23T05:03:16.820Z,99.90
2018-05-23T05:05:44.256Z,99.90
2018-05-23T05:08:11.776Z,99.90
2018-05-23T05:10:39.275Z,99.90
2018-05-23T05:13:06.800Z,99.90
2018-05-23T05:15:34.301Z,99.90
2018-05-23T05:18:01.820Z,99.90
2018-05-23T05:20:29.759Z,99.90
2018-05-23T05:22:57.292Z,99.90
2018-05-23T05:25:24.792Z,99.90
2018-05-23T05:27:52.287Z,99.90
2018-05-23T05:30:19.807Z,99.90
2018-05-23T05:32:47.299Z,99.90
2018-05-23T05:35:14.820Z,99.90
2018-05-23T05:37:43.076Z,99.90
2018-05-23T05:40:10.592Z,99.90
2018-05-23T05:42:38.080Z,99.90
2018-05-23T05:45:07.104Z,99.90
2018-05-23T05:47:35.362Z,99.90
2018-05-23T05:50:02.852Z,99.90
2018-05-23T05:52:30.368Z,99.90
2018-05-23T05:54:57.860Z,99.90
2018-05-23T05:57:25.393Z,99.90
2018-05-23T05:59:52.896Z,99.90
2018-05-23T06:02:20.409Z,99.80
2018-05-23T06:04:47.909Z,99.70
2018-05-23T06:07:15.425Z,99.30
2018-05-23T06:09:43.008Z,99.90
2018-05-23T06:12:10.420Z,99.30
2018-05-23T06:14:37.936Z,99.30
2018-05-23T06:17:05.436Z,99.20
2018-05-23T06:19:32.948Z,98.60
2018-05-23T06:22:00.448Z,97.90
2018-05-23T06:24:28.054Z,98.30
2018-05-23T06:26:55.556Z,98.20
2018-05-23T06:29:23.048Z,98.10
2018-05-23T06:31:53.861Z,98.40
2018-05-23T06:34:21.389Z,98.30
2018-05-23T06:36:48.903Z,98.70
2018-05-23T06:39:16.395Z,98.50
2018-05-23T06:41:43.913Z,97.90
2018-05-23T06:44:11.408Z,97.80
2018-05-23T06:46:38.928Z,97.70
2018-05-23T06:49:06.417Z,97.50
2018-05-23T06:51:34.675Z,98.10
2018-05-23T06:54:02.195Z,98.00
2018-05-23T06:56:29.692Z,97.30
2018-05-23T06:58:57.204Z,97.50
2018-05-23T07:01:24.696Z,97.60
2018-05-23T07:03:52.208Z,97.20
2018-05-23T07:06:19.700Z,97.00
2018-05-23T07:08:47.187Z,97.00
2018-05-23T07:11:14.719Z,96.70
2018-05-23T07:13:42.209Z,96.70
2018-05-23T07:16:10.492Z,96.30
2018-05-23T07:18:38.743Z,95.90
2018-05-23T07:21:06.266Z,95.90
2018-05-23T07:23:33.762Z,96.00
2018-05-23T07:26:01.285Z,96.20
2018-05-23T07:28:28.796Z,96.00
2018-05-23T07:30:57.084Z,95.40
2018-05-23T07:33:25.340Z,95.30
2018-05-23T07:35:53.599Z,95.60
2018-05-23T07:38:21.116Z,95.60
2018-05-23T07:40:49.356Z,95.40
2018-05-23T07:43:17.640Z,95.50
2018-05-23T07:45:45.991Z,95.80
2018-05-23T07:48:14.204Z,95.60
2018-05-23T07:50:41.696Z,95.50
2018-05-23T07:53:09.210Z,94.70
2018-05-23T07:55:37.472Z,95.00
2018-05-23T07:58:05.760Z,94.40
2018-05-23T08:00:34.018Z,94.70
2018-05-23T08:03:01.516Z,94.70
2018-05-23T08:05:29.036Z,94.00
2018-05-23T08:07:56.529Z,94.00
2018-05-23T08:10:24.044Z,94.40
2018-05-23T08:12:51.536Z,94.10
2018-05-23T08:15:19.815Z,94.10
2018-05-23T08:17:48.076Z,92.50
2018-05-23T08:20:16.332Z,92.50
2018-05-23T08:22:43.847Z,92.20
2018-05-23T08:25:11.340Z,92.10
2018-05-23T08:27:38.852Z,91.70
2018-05-23T08:30:06.341Z,91.40
2018-05-23T08:32:33.853Z,91.50
2018-05-23T08:35:02.112Z,91.40
2018-05-23T08:37:29.604Z,91.40
2018-05-23T08:39:57.128Z,91.10
2018-05-23T08:42:26.642Z,91.10
2018-05-23T08:44:54.869Z,90.30
2018-05-23T08:47:22.360Z,89.30
2018-05-23T08:49:49.876Z,90.10
2018-05-23T08:52:17.364Z,90.60
2018-05-23T08:54:44.872Z,88.90
2018-05-23T08:57:12.365Z,90.10
2018-05-23T08:59:39.876Z,89.40
2018-05-23T09:02:08.132Z,87.80
2018-05-23T09:04:35.646Z,87.70
2018-05-23T09:07:03.137Z,86.90
2018-05-23T09:09:31.421Z,85.40
2018-05-23T09:11:58.912Z,85.50
2018-05-23T09:14:27.165Z,83.30
2018-05-23T09:16:54.685Z,83.20
2018-05-23T09:19:22.172Z,83.60
2018-05-23T09:21:49.689Z,83.90
2018-05-23T09:24:17.188Z,85.80
2018-05-23T09:26:44.708Z,84.50
2018-05-23T09:29:12.204Z,85.00
2018-05-23T09:31:39.721Z,83.60
2018-05-23T09:34:07.216Z,81.80
2018-05-23T09:36:34.704Z,81.50
2018-05-23T09:39:03.273Z,82.40
2018-05-23T09:41:30.711Z,82.20
2018-05-23T09:43:58.224Z,82.10
2018-05-23T09:46:25.720Z,78.60
2018-05-23T09:48:53.232Z,78.80
2018-05-23T09:51:20.720Z,77.30
2018-05-23T09:53:48.236Z,78.50
2018-05-23T09:56:16.494Z,79.90
2018-05-23T09:58:43.988Z,79.80
2018-05-23T10:01:11.500Z,78.60
2018-05-23T10:03:38.988Z,76.70
2018-05-23T10:06:07.267Z,77.40
2018-05-23T10:08:35.519Z,78.90
2018-05-23T10:11:03.033Z,78.90
2018-05-23T10:13:30.528Z,74.00
2018-05-23T10:15:58.043Z,76.00
2018-05-23T10:18:25.527Z,76.40
2018-05-23T10:20:53.021Z,76.70
2018-05-23T10:23:21.304Z,72.40
2018-05-23T10:25:49.555Z,70.10
2018-05-23T10:28:17.068Z,70.00
2018-05-23T10:30:44.560Z,69.40
2018-05-23T10:33:12.144Z,71.00
2018-05-23T10:35:39.632Z,72.10
2018-05-23T10:38:07.144Z,73.50
2018-05-23T10:40:34.636Z,72.00
2018-05-23T10:43:03.005Z,67.10
2018-05-23T10:45:30.428Z,67.10
2018-05-23T10:47:57.916Z,68.30
2018-05-23T10:50:25.423Z,67.60
2018-05-23T10:52:52.912Z,65.60
2018-05-23T10:55:20.425Z,63.20
2018-05-23T10:57:47.916Z,60.00
2018-05-23T11:00:15.514Z,59.90
2018-05-23T11:02:42.927Z,59.80
2018-05-23T11:05:10.440Z,58.90
2018-05-23T11:07:38.699Z,58.80
2018-05-23T11:10:06.188Z,58.80
2018-05-23T11:12:33.703Z,57.60
2018-05-23T11:15:01.227Z,58.70
2018-05-23T11:17:28.737Z,59.20
2018-05-23T11:19:56.223Z,57.40
2018-05-23T11:22:23.736Z,57.20
2018-05-23T11:24:51.226Z,56.50
2018-05-23T11:27:19.512Z,55.80
2018-05-23T11:29:47.015Z,55.90
2018-05-23T11:32:14.517Z,56.00
2018-05-23T11:34:42.797Z,55.70
2018-05-23T11:37:11.052Z,55.40
2018-05-23T11:39:38.629Z,55.40
2018-05-23T11:42:06.080Z,55.10
2018-05-23T11:44:34.355Z,54.30
2018-05-23T11:47:01.851Z,53.80
2018-05-23T11:49:29.369Z,53.30
2018-05-23T11:51:56.860Z,52.90
2018-05-23T11:54:24.376Z,53.90
2018-05-23T11:56:51.864Z,52.50
2018-05-23T11:59:20.120Z,53.80
2018-05-23T12:01:47.696Z,53.70
2018-05-23T12:04:15.160Z,53.10
2018-05-23T12:06:43.437Z,54.10
2018-05-23T12:09:10.928Z,54.10
2018-05-23T12:11:38.440Z,54.50
2018-05-23T12:14:06.693Z,56.40
2018-05-23T12:16:34.208Z,56.40
2018-05-23T12:19:01.697Z,57.80
2018-05-23T12:21:29.187Z,59.20
2018-05-23T12:23:57.465Z,62.50
2018-05-23T12:26:25.724Z,62.30
2018-05-23T12:28:53.236Z,62.20
2018-05-23T12:31:20.728Z,61.40
2018-05-23T12:33:48.241Z,64.40
2018-05-23T12:36:15.732Z,64.10
2018-05-23T12:38:43.244Z,65.50
2018-05-23T12:41:11.500Z,62.00
2018-05-23T12:43:38.997Z,61.80
2018-05-23T12:46:06.512Z,59.40
2018-05-23T12:48:34.009Z,64.10
2018-05-23T12:51:01.521Z,74.50
2018-05-23T12:53:29.016Z,75.60
2018-05-23T12:55:57.302Z,82.10
2018-05-23T12:58:24.795Z,81.90
2018-05-23T13:00:52.312Z,84.50
2018-05-23T13:03:19.808Z,84.00
2018-05-23T13:05:47.328Z,83.20
2018-05-23T13:08:14.823Z,83.40
2018-05-23T13:10:42.312Z,82.70
2018-05-23T13:13:09.828Z,84.20
2018-05-23T13:15:37.316Z,84.30
2018-05-23T13:18:04.828Z,86.30
2018-05-23T13:20:32.320Z,87.60
2018-05-23T13:22:59.836Z,88.00
2018-05-23T13:25:28.088Z,90.40
2018-05-23T13:27:55.604Z,90.40
2018-05-23T13:30:23.092Z,90.70
2018-05-23T13:32:50.590Z,91.00
2018-05-23T13:35:18.104Z,89.90
2018-05-23T13:37:45.592Z,90.00
2018-05-23T13:40:13.868Z,90.90
2018-05-23T13:42:42.127Z,91.70
2018-05-23T13:45:09.642Z,91.70
2018-05-23T13:47:37.133Z,91.60
2018-05-23T13:50:04.643Z,90.20
2018-05-23T13:52:32.223Z,90.40
2018-05-23T13:54:59.740Z,90.90
2018-05-23T13:57:27.995Z,92.10
2018-05-23T13:59:55.484Z,92.10
2018-05-23T14:02:23.758Z,93.50
2018-05-23T14:04:51.253Z,93.20
2018-05-23T14:07:18.764Z,92.40
2018-05-23T14:09:47.040Z,91.30
2018-05-23T14:12:14.543Z,91.30
2018-05-23T14:14:42.028Z,92.30
2018-05-23T14:17:09.540Z,93.00
2018-05-23T14:19:37.028Z,93.60
2018-05-23T14:22:04.519Z,93.60
2018-05-23T14:24:32.032Z,93.10
2018-05-23T14:26:59.519Z,93.40
2018-05-23T14:29:27.033Z,94.10
2018-05-23T14:31:54.528Z,94.20
2018-05-23T14:34:22.043Z,94.10
2018-05-23T14:36:49.531Z,95.40
2018-05-23T14:39:17.060Z,95.80
2018-05-23T14:41:44.547Z,95.20
2018-05-23T14:44:12.056Z,96.50
2018-05-23T14:46:40.337Z,95.90
2018-05-23T14:49:08.595Z,96.50
2018-05-23T14:51:36.114Z,96.50
2018-05-23T14:54:03.605Z,95.70
2018-05-23T14:56:31.130Z,95.80
2018-05-23T14:58:58.625Z,96.30
2018-05-23T15:01:26.140Z,97.30
2018-05-23T15:03:53.628Z,97.60
2018-05-23T15:06:21.140Z,97.30
2018-05-23T15:08:48.636Z,96.70
2018-05-23T15:11:16.124Z,96.50
2018-05-23T15:13:43.637Z,97.10
2018-05-23T15:16:11.127Z,97.40
2018-05-23T15:18:38.635Z,98.10
2018-05-23T15:21:06.124Z,98.30
2018-05-23T15:23:33.627Z,97.80
2018-05-23T15:26:01.880Z,98.50
2018-05-23T15:28:29.392Z,98.50
2018-05-23T15:30:56.884Z,98.90
2018-05-23T15:33:24.373Z,99.20
2018-05-23T15:35:52.652Z,99.70
2018-05-23T15:38:20.908Z,99.40
2018-05-23T15:40:48.421Z,99.40
2018-05-23T15:43:15.921Z,99.40
2018-05-23T15:45:44.196Z,99.40
2018-05-23T15:48:11.695Z,99.40
2018-05-23T15:50:39.973Z,99.50
2018-05-23T15:53:07.477Z,99.50
2018-05-23T15:55:34.972Z,99.60
2018-05-23T15:58:03.248Z,99.70
2018-05-23T16:00:31.512Z,99.70
2018-05-23T16:02:59.044Z,99.70
2018-05-23T16:05:26.535Z,99.80
2018-05-23T16:07:54.047Z,99.90
2018-05-23T16:10:21.537Z,99.90
2018-05-23T16:12:49.052Z,99.90
2018-05-23T16:15:16.546Z,99.90
2018-05-23T16:17:44.041Z,99.90
2018-05-23T16:20:12.364Z,99.90
2018-05-23T16:22:39.909Z,99.90
2018-05-23T16:25:07.428Z,99.90
2018-05-23T16:27:35.684Z,99.90
2018-05-23T16:30:03.964Z,99.90
2018-05-23T16:32:31.460Z,99.90
2018-05-23T16:34:58.972Z,99.90
2018-05-23T16:37:26.468Z,99.90
2018-05-23T16:39:54.724Z,99.90
2018-05-23T16:42:22.244Z,99.90
2018-05-23T16:44:49.738Z,99.90
2018-05-23T16:47:17.258Z,99.90
2018-05-23T16:49:44.759Z,99.90
2018-05-23T16:52:12.301Z,99.90
2018-05-23T16:54:39.775Z,99.90
2018-05-23T16:57:07.288Z,99.60
2018-05-23T16:59:34.782Z,98.10
2018-05-23T17:02:02.278Z,97.40
2018-05-23T17:04:29.791Z,97.30
2018-05-23T17:06:57.283Z,97.20
2018-05-23T17:09:25.564Z,97.50
2018-05-23T17:11:53.820Z,97.90
2018-05-23T17:14:21.331Z,97.80
2018-05-23T17:16:48.820Z,98.10
2018-05-23T17:19:16.340Z,98.20
2018-05-23T17:21:43.841Z,98.10
2018-05-23T17:24:11.331Z,98.70
2018-05-23T17:26:38.864Z,98.50
2018-05-23T17:29:06.369Z,98.40
2018-05-23T17:31:33.890Z,98.70
2018-05-23T17:34:01.384Z,98.50
2018-05-23T17:36:28.900Z,99.20
2018-05-23T17:38:56.393Z,98.80
2018-05-23T17:41:23.884Z,99.20
2018-05-23T17:43:51.399Z,99.50
2018-05-23T17:46:19.652Z,99.50
2018-05-23T17:48:47.164Z,99.40
2018-05-23T17:51:14.660Z,99.20
2018-05-23T17:53:42.185Z,99.40
2018-05-23T17:56:09.676Z,99.50
2018-05-23T17:58:37.169Z,99.30
2018-05-23T18:01:05.447Z,99.50
2018-05-23T18:03:33.700Z,99.40
2018-05-23T18:06:01.349Z,99.40
2018-05-23T18:08:28.720Z,99.10
2018-05-23T18:10:56.234Z,99.40
2018-05-23T18:13:23.738Z,99.70
2018-05-23T18:15:51.238Z,99.60
2018-05-23T18:18:18.748Z,99.50
2018-05-23T18:20:46.236Z,99.60
2018-05-23T18:23:13.752Z,99.50
2018-05-23T18:25:41.245Z,99.40
2018-05-23T18:28:09.532Z,99.80
2018-05-23T18:30:37.026Z,99.70
2018-05-23T18:33:04.516Z,99.80
2018-05-23T18:35:32.024Z,99.50
2018-05-23T18:37:59.518Z,99.60
2018-05-23T18:40:27.029Z,99.90
2018-05-23T18:42:54.578Z,99.90
2018-05-23T18:45:22.052Z,99.90
2018-05-23T18:47:49.548Z,99.90
2018-05-23T18:50:17.064Z,99.90
2018-05-23T18:52:44.560Z,99.90
2018-05-23T18:55:12.080Z,99.90
2018-05-23T18:57:39.596Z,99.90
2018-05-23T19:00:07.088Z,99.90
2018-05-23T19:02:35.371Z,99.90
2018-05-23T19:05:02.964Z,99.90
2018-05-23T19:07:30.392Z,99.90
2018-05-23T19:09:57.884Z,99.90
2018-05-23T19:12:25.377Z,99.90
2018-05-23T19:14:52.894Z,99.90
2018-05-23T19:17:20.387Z,99.90
2018-05-23T19:19:47.962Z,99.90
2018-05-23T19:22:15.416Z,99.90
2018-05-23T19:24:42.924Z,99.90
2018-05-23T19:27:10.416Z,99.90
2018-05-23T19:29:37.935Z,99.90
2018-05-23T19:32:05.428Z,99.90
2018-05-23T19:34:32.937Z,99.90
2018-05-23T19:37:00.427Z,99.90
2018-05-23T19:39:27.919Z,99.90
2018-05-23T19:41:55.456Z,99.90
2018-05-23T19:44:22.948Z,99.90
2018-05-23T19:46:51.223Z,99.90
2018-05-23T19:49:19.480Z,99.90
2018-05-23T19:51:47.832Z,99.90
2018-05-23T19:54:15.344Z,99.90
2018-05-23T19:56:43.604Z,99.90
2018-05-23T19:59:11.120Z,99.90
2018-05-23T20:01:38.613Z,99.90
2018-05-23T20:04:06.130Z,99.90
2018-05-23T20:06:33.620Z,99.90
2018-05-23T20:09:01.135Z,99.90
2018-05-23T20:11:28.624Z,99.90
2018-05-23T20:13:56.149Z,99.90
2018-05-23T20:16:23.643Z,99.90
2018-05-23T20:18:51.133Z,99.90
2018-05-23T20:21:19.415Z,99.90
2018-05-23T20:23:47.668Z,99.90
2018-05-23T20:26:15.183Z,99.90
2018-05-23T20:28:42.673Z,99.90
2018-05-23T20:31:10.195Z,99.90
2018-05-23T20:33:37.692Z,99.90
2018-05-23T20:36:05.184Z,99.90
2018-05-23T20:38:33.465Z,99.90
2018-05-23T20:41:01.726Z,99.90
2018-05-23T20:43:29.244Z,99.90
2018-05-23T20:45:56.735Z,99.90
2018-05-23T20:48:24.248Z,99.90
2018-05-23T20:50:51.736Z,99.90
2018-05-23T20:53:19.252Z,99.90
2018-05-23T20:55:46.748Z,99.90
2018-05-23T20:58:14.248Z,99.90
2018-05-23T21:00:42.532Z,99.90
2018-05-23T21:03:10.032Z,99.90
2018-05-23T21:05:37.612Z,99.90
2018-05-23T21:08:05.062Z,99.90
2018-05-23T21:10:32.556Z,99.90
2018-05-23T21:13:00.836Z,99.90
2018-05-23T21:15:29.092Z,99.90
2018-05-23T21:17:56.603Z,99.90
2018-05-23T21:20:24.116Z,99.90
2018-05-23T21:22:51.648Z,99.90
2018-05-23T21:25:19.139Z,99.90
2018-05-23T21:27:47.455Z,99.90
2018-05-23T21:30:15.704Z,99.90
2018-05-23T21:32:43.959Z,99.90
2018-05-23T21:35:11.477Z,99.90
2018-05-23T21:37:38.976Z,99.90
2018-05-23T21:40:06.474Z,99.90
2018-05-23T21:42:33.996Z,99.90
2018-05-23T21:45:01.499Z,99.90
2018-05-23T21:47:29.019Z,99.90
2018-05-23T21:49:57.279Z,99.90
2018-05-23T21:52:24.801Z,99.90
2018-05-23T21:54:52.291Z,99.90
2018-05-23T21:57:19.797Z,99.90
2018-05-23T21:59:47.608Z,99.90
2018-05-23T22:02:15.108Z,99.90
2018-05-23T22:04:43.396Z,99.90
2018-05-23T22:07:10.892Z,99.90
2018-05-23T22:09:38.422Z,99.90
2018-05-23T22:12:05.916Z,99.90
2018-05-23T22:14:33.408Z,99.90
2018-05-23T22:17:01.695Z,99.90
2018-05-23T22:19:29.956Z,99.90
2018-05-23T22:21:58.236Z,99.90
2018-05-23T22:24:26.584Z,99.90
2018-05-23T22:26:54.804Z,99.90
2018-05-23T22:29:22.300Z,99.90
2018-05-23T22:31:49.820Z,99.90
2018-05-23T22:34:18.176Z,99.90
2018-05-23T22:36:45.675Z,99.90
2018-05-23T22:39:13.192Z,99.90
2018-05-23T22:41:41.458Z,99.90
2018-05-23T22:44:09.840Z,99.90
2018-05-23T22:46:37.341Z,99.90
2018-05-23T22:49:04.836Z,99.90
2018-05-23T22:51:32.352Z,99.90
2018-05-23T22:53:59.848Z,99.90
2018-05-23T22:56:27.368Z,99.90
2018-05-23T22:58:54.873Z,99.90
2018-05-23T23:01:22.400Z,99.90
2018-05-23T23:03:49.895Z,99.90
2018-05-23T23:06:17.420Z,99.90
2018-05-23T23:08:44.916Z,99.90
2018-05-23T23:11:12.432Z,99.90
2018-05-23T23:13:39.928Z,99.90
2018-05-23T23:16:07.420Z,99.90
2018-05-23T23:18:35.699Z,99.90
2018-05-23T23:21:03.955Z,99.90
2018-05-23T23:23:31.476Z,99.90
2018-05-23T23:25:58.975Z,99.90
2018-05-23T23:28:26.495Z,99.90
2018-05-23T23:30:53.992Z,99.90
2018-05-23T23:33:21.508Z,99.90
2018-05-23T23:35:49.000Z,99.90
2018-05-23T23:38:16.500Z,99.90
2018-05-23T23:40:44.024Z,99.90
2018-05-23T23:43:11.525Z,99.90
2018-05-23T23:45:39.048Z,99.90
2018-05-23T23:48:07.313Z,99.90
2018-05-23T23:50:34.836Z,99.90
2018-05-23T23:53:02.327Z,99.90
2018-05-23T23:55:29.849Z,99.90
2018-05-23T23:57:57.348Z,99.90
